sensor_id;sensor_type;location;lat;lon;timestamp;pressure;altitude;pressure_sealevel;temperature;humidity
62126;BME280;48112;53.282;6.150;2023-01-24T00:00:27;104199.53;;;15.13;50.64
62126;BME280;48112;53.282;6.150;2023-01-24T00:01:29;104198.75;;;15.13;50.89
62126;BME280;48112;53.282;6.150;2023-01-24T00:02:31;104189.75;;;15.12;51.07
62126;BME280;48112;53.282;6.150;2023-01-24T00:03:33;104202.25;;;15.13;50.85
62126;BME280;48112;53.282;6.150;2023-01-24T00:04:35;104197.09;;;15.12;50.88
62126;BME280;48112;53.282;6.150;2023-01-24T00:05:38;104199.53;;;15.13;50.94
62126;BME280;48112;53.282;6.150;2023-01-24T00:06:39;104197.09;;;15.12;50.94
62126;BME280;48112;53.282;6.150;2023-01-24T00:07:43;104188.13;;;15.11;50.89
62126;BME280;48112;53.282;6.150;2023-01-24T00:08:45;104190.56;;;15.13;50.85
62126;BME280;48112;53.282;6.150;2023-01-24T00:09:47;104185.41;;;15.11;50.82
62126;BME280;48112;53.282;6.150;2023-01-24T00:10:49;104179.94;;;15.11;50.82
62126;BME280;48112;53.282;6.150;2023-01-24T00:11:59;104182.69;;;15.11;50.85
62126;BME280;48112;53.282;6.150;2023-01-24T00:13:01;104177.22;;;15.11;51.06
62126;BME280;48112;53.282;6.150;2023-01-24T00:14:03;104181.88;;;15.11;50.98
62126;BME280;48112;53.282;6.150;2023-01-24T00:15:06;104182.69;;;15.11;51.10
62126;BME280;48112;53.282;6.150;2023-01-24T00:16:09;104181.06;;;15.10;50.77
62126;BME280;48112;53.282;6.150;2023-01-24T00:17:12;104181.06;;;15.10;50.96
62126;BME280;48112;53.282;6.150;2023-01-24T00:18:14;104178.34;;;15.10;50.97
62126;BME280;48112;53.282;6.150;2023-01-24T00:19:16;104191.94;;;15.10;50.86
62126;BME280;48112;53.282;6.150;2023-01-24T00:20:18;104178.34;;;15.10;50.71
62126;BME280;48112;53.282;6.150;2023-01-24T00:21:22;104170.19;;;15.10;50.80
62126;BME280;48112;53.282;6.150;2023-01-24T00:22:25;104174.50;;;15.11;50.70
62126;BME280;48112;53.282;6.150;2023-01-24T00:23:28;104178.34;;;15.10;50.86
62126;BME280;48112;53.282;6.150;2023-01-24T00:24:30;104175.91;;;15.09;50.87
62126;BME280;48112;53.282;6.150;2023-01-24T00:25:34;104174.00;;;15.09;50.82
62126;BME280;48112;53.282;6.150;2023-01-24T00:26:36;104179.44;;;15.09;50.72
62126;BME280;48112;53.282;6.150;2023-01-24T00:27:38;104182.19;;;15.09;50.98
62126;BME280;48112;53.282;6.150;2023-01-24T00:28:41;104177.53;;;15.10;50.92
62126;BME280;48112;53.282;6.150;2023-01-24T00:29:42;104179.44;;;15.09;51.04
62126;BME280;48112;53.282;6.150;2023-01-24T00:30:45;104177.81;;;15.08;50.87
62126;BME280;48112;53.282;6.150;2023-01-24T00:31:47;104174.00;;;15.09;50.71
62126;BME280;48112;53.282;6.150;2023-01-24T00:32:49;104179.44;;;15.09;50.78
62126;BME280;48112;53.282;6.150;2023-01-24T00:33:51;104177.81;;;15.08;51.03
62126;BME280;48112;53.282;6.150;2023-01-24T00:34:53;104180.53;;;15.08;50.99
62126;BME280;48112;53.282;6.150;2023-01-24T00:35:57;104175.09;;;15.08;50.88
62126;BME280;48112;53.282;6.150;2023-01-24T00:37:00;104182.19;;;15.09;50.81
62126;BME280;48112;53.282;6.150;2023-01-24T00:38:01;104170.75;;;15.07;50.82
62126;BME280;48112;53.282;6.150;2023-01-24T00:39:05;104177.03;;;15.08;50.81
62126;BME280;48112;53.282;6.150;2023-01-24T00:40:07;104176.19;;;15.07;50.94
62126;BME280;48112;53.282;6.150;2023-01-24T00:41:10;104176.19;;;15.07;50.80
62126;BME280;48112;53.282;6.150;2023-01-24T00:42:11;104170.75;;;15.07;50.82
62126;BME280;48112;53.282;6.150;2023-01-24T00:43:14;104168.84;;;15.08;50.82
62126;BME280;48112;53.282;6.150;2023-01-24T00:44:16;104177.81;;;15.08;50.83
62126;BME280;48112;53.282;6.150;2023-01-24T00:45:19;104176.19;;;15.07;50.80
62126;BME280;48112;53.282;6.150;2023-01-24T00:46:21;104174.31;;;15.08;50.87
62126;BME280;48112;53.282;6.150;2023-01-24T00:47:24;104169.66;;;15.08;50.86
62126;BME280;48112;53.282;6.150;2023-01-24T00:48:25;104163.72;;;15.06;50.86
62126;BME280;48112;53.282;6.150;2023-01-24T00:49:28;104173.47;;;15.07;51.03
62126;BME280;48112;53.282;6.150;2023-01-24T00:50:30;104173.47;;;15.07;50.65
62126;BME280;48112;53.282;6.150;2023-01-24T00:51:33;104171.59;;;15.08;50.71
62126;BME280;48112;53.282;6.150;2023-01-24T00:52:34;104172.66;;;15.07;50.99
62126;BME280;48112;53.282;6.150;2023-01-24T00:53:37;104169.16;;;15.06;50.71
62126;BME280;48112;53.282;6.150;2023-01-24T00:54:41;104169.16;;;15.06;50.76
62126;BME280;48112;53.282;6.150;2023-01-24T00:55:42;104171.88;;;15.06;50.96
62126;BME280;48112;53.282;6.150;2023-01-24T00:56:46;104174.88;;;15.05;50.86
62126;BME280;48112;53.282;6.150;2023-01-24T00:57:49;104170.22;;;15.05;50.74
62126;BME280;48112;53.282;6.150;2023-01-24T00:58:51;104175.66;;;15.05;50.95
62126;BME280;48112;53.282;6.150;2023-01-24T00:59:53;104173.78;;;15.06;50.84
62126;BME280;48112;53.282;6.150;2023-01-24T01:00:55;104178.41;;;15.05;51.04
62126;BME280;48112;53.282;6.150;2023-01-24T01:01:59;104184.66;;;15.06;51.05
62126;BME280;48112;53.282;6.150;2023-01-24T01:03:01;104194.72;;;15.05;50.71
62126;BME280;48112;53.282;6.150;2023-01-24T01:04:04;104188.50;;;15.05;50.86
62126;BME280;48112;53.282;6.150;2023-01-24T01:05:06;104192.81;;;15.06;50.84
62126;BME280;48112;53.282;6.150;2023-01-24T01:06:10;104183.84;;;15.05;50.64
62126;BME280;48112;53.282;6.150;2023-01-24T01:07:13;104193.13;;;15.04;50.79
62126;BME280;48112;53.282;6.150;2023-01-24T01:08:15;104192.00;;;15.05;50.95
62126;BME280;48112;53.282;6.150;2023-01-24T01:09:17;104194.72;;;15.05;50.75
62126;BME280;48112;53.282;6.150;2023-01-24T01:10:21;104191.22;;;15.05;50.93
62126;BME280;48112;53.282;6.150;2023-01-24T01:11:24;104193.13;;;15.04;50.98
62126;BME280;48112;53.282;6.150;2023-01-24T01:12:26;104175.19;;;15.03;50.69
62126;BME280;48112;53.282;6.150;2023-01-24T01:13:28;104188.50;;;15.05;50.54
62126;BME280;48112;53.282;6.150;2023-01-24T01:14:31;104193.13;;;15.04;51.06
62126;BME280;48112;53.282;6.150;2023-01-24T01:15:33;104186.06;;;15.03;50.85
62126;BME280;48112;53.282;6.150;2023-01-24T01:16:37;104184.13;;;15.03;50.87
62126;BME280;48112;53.282;6.150;2023-01-24T01:17:39;104186.06;;;15.03;50.87
62126;BME280;48112;53.282;6.150;2023-01-24T01:18:42;104187.66;;;15.04;50.73
62126;BME280;48112;53.282;6.150;2023-01-24T01:19:44;104184.13;;;15.03;50.91
62126;BME280;48112;53.282;6.150;2023-01-24T01:20:49;104186.06;;;15.03;50.71
62126;BME280;48112;53.282;6.150;2023-01-24T01:21:52;104187.66;;;15.04;51.03
62126;BME280;48112;53.282;6.150;2023-01-24T01:22:54;104181.69;;;15.02;51.00
62126;BME280;48112;53.282;6.150;2023-01-24T01:23:57;104184.13;;;15.03;50.91
62126;BME280;48112;53.282;6.150;2023-01-24T01:25:00;104184.13;;;15.03;50.88
62126;BME280;48112;53.282;6.150;2023-01-24T01:26:04;104180.63;;;15.03;50.92
62126;BME280;48112;53.282;6.150;2023-01-24T01:27:07;104183.34;;;15.03;50.94
62126;BME280;48112;53.282;6.150;2023-01-24T01:28:09;104178.97;;;15.02;50.87
62126;BME280;48112;53.282;6.150;2023-01-24T01:29:12;104181.69;;;15.02;50.91
62126;BME280;48112;53.282;6.150;2023-01-24T01:30:14;104189.88;;;15.02;50.89
62126;BME280;48112;53.282;6.150;2023-01-24T01:31:16;104179.78;;;15.02;50.93
62126;BME280;48112;53.282;6.150;2023-01-24T01:32:19;104175.19;;;15.03;51.12
62126;BME280;48112;53.282;6.150;2023-01-24T01:33:22;104179.78;;;15.02;50.74
62126;BME280;48112;53.282;6.150;2023-01-24T01:34:24;104186.06;;;15.03;51.07
62126;BME280;48112;53.282;6.150;2023-01-24T01:35:26;104187.13;;;15.02;50.87
62126;BME280;48112;53.282;6.150;2023-01-24T01:36:28;104184.41;;;15.02;50.99
62126;BME280;48112;53.282;6.150;2023-01-24T01:37:31;104178.97;;;15.02;50.95
62126;BME280;48112;53.282;6.150;2023-01-24T01:38:35;104173.53;;;15.02;50.95
62126;BME280;48112;53.282;6.150;2023-01-24T01:39:38;104179.78;;;15.02;50.71
62126;BME280;48112;53.282;6.150;2023-01-24T01:40:40;104177.38;;;15.01;50.96
62126;BME280;48112;53.282;6.150;2023-01-24T01:41:44;104166.47;;;15.01;50.77
62126;BME280;48112;53.282;6.150;2023-01-24T01:42:50;104180.88;;;15.01;50.96
62126;BME280;48112;53.282;6.150;2023-01-24T01:43:53;104182.81;;;15.01;51.01
62126;BME280;48112;53.282;6.150;2023-01-24T01:46:38;104180.09;;;15.01;50.78
62126;BME280;48112;53.282;6.150;2023-01-24T01:47:41;104174.66;;;15.01;50.97
62126;BME280;48112;53.282;6.150;2023-01-24T01:48:45;104182.00;;;15.00;51.07
62126;BME280;48112;53.282;6.150;2023-01-24T01:49:50;104179.28;;;15.00;50.95
62126;BME280;48112;53.282;6.150;2023-01-24T01:50:56;104174.66;;;15.01;51.12
62126;BME280;48112;53.282;6.150;2023-01-24T01:52:01;104182.81;;;15.01;50.98
62126;BME280;48112;53.282;6.150;2023-01-24T01:53:04;104180.09;;;15.01;50.91
62126;BME280;48112;53.282;6.150;2023-01-24T01:54:07;104179.28;;;15.00;50.98
62126;BME280;48112;53.282;6.150;2023-01-24T01:55:12;104175.72;;;15.00;50.81
62126;BME280;48112;53.282;6.150;2023-01-24T01:56:16;104170.28;;;15.00;50.77
62126;BME280;48112;53.282;6.150;2023-01-24T01:57:24;104171.09;;;15.00;50.96
62126;BME280;48112;53.282;6.150;2023-01-24T01:58:27;104175.72;;;15.00;51.09
62126;BME280;48112;53.282;6.150;2023-01-24T01:59:30;104180.38;;;14.99;51.00
62126;BME280;48112;53.282;6.150;2023-01-24T02:00:34;104178.44;;;15.00;50.83
62126;BME280;48112;53.282;6.150;2023-01-24T02:01:37;104180.38;;;14.99;51.00
62126;BME280;48112;53.282;6.150;2023-01-24T02:02:39;104170.28;;;15.00;50.78
62126;BME280;48112;53.282;6.150;2023-01-24T02:03:44;104167.56;;;15.00;50.81
62126;BME280;48112;53.282;6.150;2023-01-24T02:04:49;104181.16;;;15.00;51.08
62126;BME280;48112;53.282;6.150;2023-01-24T02:05:54;104176.53;;;15.00;51.02
62126;BME280;48112;53.282;6.150;2023-01-24T02:06:57;104175.72;;;15.00;50.99
62126;BME280;48112;53.282;6.150;2023-01-24T02:08:03;104180.38;;;14.99;51.00
62126;BME280;48112;53.282;6.150;2023-01-24T02:09:08;104174.13;;;14.99;50.73
62126;BME280;48112;53.282;6.150;2023-01-24T02:10:12;104175.72;;;15.00;50.82
62126;BME280;48112;53.282;6.150;2023-01-24T02:11:14;104183.38;;;14.98;50.93
62126;BME280;48112;53.282;6.150;2023-01-24T02:12:36;104182.28;;;14.99;50.79
62126;BME280;48112;53.282;6.150;2023-01-24T02:13:40;104163.22;;;14.99;50.99
62126;BME280;48112;53.282;6.150;2023-01-24T02:14:44;104174.94;;;14.99;51.23
62126;BME280;48112;53.282;6.150;2023-01-24T02:16:06;104163.22;;;14.99;50.91
62126;BME280;48112;53.282;6.150;2023-01-24T02:17:08;104169.50;;;14.99;51.00
62126;BME280;48112;53.282;6.150;2023-01-24T02:18:10;104174.94;;;14.99;50.87
62126;BME280;48112;53.282;6.150;2023-01-24T02:19:14;104168.66;;;14.99;50.92
62126;BME280;48112;53.282;6.150;2023-01-24T02:20:26;104167.06;;;14.98;50.84
62126;BME280;48112;53.282;6.150;2023-01-24T02:21:30;104173.28;;;14.98;51.04
62126;BME280;48112;53.282;6.150;2023-01-24T02:22:34;104172.50;;;14.98;50.92
62126;BME280;48112;53.282;6.150;2023-01-24T02:23:41;104161.63;;;14.98;51.05
62126;BME280;48112;53.282;6.150;2023-01-24T02:24:46;104166.25;;;14.97;50.84
62126;BME280;48112;53.282;6.150;2023-01-24T02:26:02;104176.00;;;14.98;50.98
62126;BME280;48112;53.282;6.150;2023-01-24T02:27:04;104167.06;;;14.98;51.05
62126;BME280;48112;53.282;6.150;2023-01-24T02:28:07;104167.06;;;14.98;50.85
62126;BME280;48112;53.282;6.150;2023-01-24T02:29:10;104164.34;;;14.98;51.14
62126;BME280;48112;53.282;6.150;2023-01-24T02:30:16;104156.19;;;14.98;50.99
62126;BME280;48112;53.282;6.150;2023-01-24T02:31:17;104163.53;;;14.97;50.93
62126;BME280;48112;53.282;6.150;2023-01-24T02:32:20;104166.25;;;14.97;50.78
62126;BME280;48112;53.282;6.150;2023-01-24T02:33:22;104167.06;;;14.98;50.88
62126;BME280;48112;53.282;6.150;2023-01-24T02:34:25;104164.34;;;14.98;51.12
62126;BME280;48112;53.282;6.150;2023-01-24T02:35:27;104160.81;;;14.97;50.95
62126;BME280;48112;53.282;6.150;2023-01-24T02:36:32;104159.97;;;14.97;50.74
62126;BME280;48112;53.282;6.150;2023-01-24T02:37:34;104160.81;;;14.97;51.02
62126;BME280;48112;53.282;6.150;2023-01-24T02:38:37;104160.81;;;14.97;50.78
62126;BME280;48112;53.282;6.150;2023-01-24T02:39:43;104149.91;;;14.97;50.74
62126;BME280;48112;53.282;6.150;2023-01-24T02:40:48;104154.53;;;14.97;50.90
62126;BME280;48112;53.282;6.150;2023-01-24T02:41:52;104158.91;;;14.98;51.00
62126;BME280;48112;53.282;6.150;2023-01-24T02:42:58;104150.22;;;14.96;51.00
62126;BME280;48112;53.282;6.150;2023-01-24T02:44:03;104154.53;;;14.97;51.01
62126;BME280;48112;53.282;6.150;2023-01-24T02:45:08;104147.50;;;14.96;51.00
62126;BME280;48112;53.282;6.150;2023-01-24T02:46:11;104146.38;;;14.97;50.78
62126;BME280;48112;53.282;6.150;2023-01-24T02:47:14;104152.63;;;14.97;51.08
62126;BME280;48112;53.282;6.150;2023-01-24T02:48:16;104151.03;;;14.96;50.71
62126;BME280;48112;53.282;6.150;2023-01-24T02:49:18;104149.09;;;14.97;50.89
62126;BME280;48112;53.282;6.150;2023-01-24T02:50:20;104148.31;;;14.96;50.90
62126;BME280;48112;53.282;6.150;2023-01-24T02:51:23;104147.50;;;14.96;50.91
62126;BME280;48112;53.282;6.150;2023-01-24T02:52:43;104152.94;;;14.96;51.00
62126;BME280;48112;53.282;6.150;2023-01-24T02:54:04;104148.31;;;14.96;51.04
62126;BME280;48112;53.282;6.150;2023-01-24T02:55:06;104155.66;;;14.96;50.80
62126;BME280;48112;53.282;6.150;2023-01-24T02:56:08;104152.94;;;14.96;50.92
62126;BME280;48112;53.282;6.150;2023-01-24T02:57:33;104153.22;;;14.94;50.85
62126;BME280;48112;53.282;6.150;2023-01-24T02:58:54;104145.88;;;14.95;51.08
62126;BME280;48112;53.282;6.150;2023-01-24T02:59:57;104150.22;;;14.96;50.89
62126;BME280;48112;53.282;6.150;2023-01-24T03:00:59;104150.22;;;14.96;50.89
62126;BME280;48112;53.282;6.150;2023-01-24T03:02:02;104155.66;;;14.96;51.11
62126;BME280;48112;53.282;6.150;2023-01-24T03:03:04;104151.31;;;14.95;51.02
62126;BME280;48112;53.282;6.150;2023-01-24T03:04:07;104152.09;;;14.95;50.76
62126;BME280;48112;53.282;6.150;2023-01-24T03:05:11;104150.50;;;14.94;50.73
62126;BME280;48112;53.282;6.150;2023-01-24T03:06:14;104151.31;;;14.95;50.94
62126;BME280;48112;53.282;6.150;2023-01-24T03:07:16;104152.09;;;14.95;50.74
62126;BME280;48112;53.282;6.150;2023-01-24T03:08:25;104153.22;;;14.94;51.02
62126;BME280;48112;53.282;6.150;2023-01-24T03:09:29;104162.19;;;14.95;50.88
62126;BME280;48112;53.282;6.150;2023-01-24T03:10:36;104161.38;;;14.94;50.88
62126;BME280;48112;53.282;6.150;2023-01-24T03:11:38;104167.66;;;14.95;50.78
62126;BME280;48112;53.282;6.150;2023-01-24T03:12:45;104152.09;;;14.95;51.17
62126;BME280;48112;53.282;6.150;2023-01-24T03:14:05;104162.19;;;14.95;50.85
62126;BME280;48112;53.282;6.150;2023-01-24T03:15:25;104156.75;;;14.95;50.73
62126;BME280;48112;53.282;6.150;2023-01-24T03:16:46;104162.19;;;14.95;50.77
62126;BME280;48112;53.282;6.150;2023-01-24T03:18:06;104154.31;;;14.93;50.86
62126;BME280;48112;53.282;6.150;2023-01-24T03:19:26;104158.66;;;14.94;51.09
62126;BME280;48112;53.282;6.150;2023-01-24T03:20:46;104159.78;;;14.93;50.73
62126;BME280;48112;53.282;6.150;2023-01-24T03:22:06;104166.00;;;14.94;50.89
62126;BME280;48112;53.282;6.150;2023-01-24T03:23:27;104159.78;;;14.93;51.03
62126;BME280;48112;53.282;6.150;2023-01-24T03:24:47;104157.84;;;14.94;51.17
62126;BME280;48112;53.282;6.150;2023-01-24T03:26:07;104165.22;;;14.93;51.07
62126;BME280;48112;53.282;6.150;2023-01-24T03:27:27;104162.78;;;14.92;50.94
62126;BME280;48112;53.282;6.150;2023-01-24T03:28:53;104166.00;;;14.94;50.98
62126;BME280;48112;53.282;6.150;2023-01-24T03:31:34;104164.38;;;14.93;51.01
62126;BME280;48112;53.282;6.150;2023-01-24T03:32:58;104159.78;;;14.93;50.88
62126;BME280;48112;53.282;6.150;2023-01-24T03:34:19;104157.84;;;14.94;50.85
62126;BME280;48112;53.282;6.150;2023-01-24T03:35:35;104165.22;;;14.93;51.03
62126;BME280;48112;53.282;6.150;2023-01-24T03:36:36;104161.66;;;14.93;51.08
62126;BME280;48112;53.282;6.150;2023-01-24T03:37:39;104164.38;;;14.93;50.98
62126;BME280;48112;53.282;6.150;2023-01-24T03:39:01;104167.13;;;14.93;50.93
62126;BME280;48112;53.282;6.150;2023-01-24T03:40:21;104170.66;;;14.93;50.93
62126;BME280;48112;53.282;6.150;2023-01-24T03:41:23;104172.56;;;14.93;50.88
62126;BME280;48112;53.282;6.150;2023-01-24T03:42:25;104163.56;;;14.92;50.90
62126;BME280;48112;53.282;6.150;2023-01-24T03:43:31;104172.56;;;14.93;50.95
62126;BME280;48112;53.282;6.150;2023-01-24T03:44:35;104158.94;;;14.93;50.97
62126;BME280;48112;53.282;6.150;2023-01-24T03:45:38;104170.94;;;14.92;51.15
62126;BME280;48112;53.282;6.150;2023-01-24T03:46:48;104168.22;;;14.92;51.02
62126;BME280;48112;53.282;6.150;2023-01-24T03:47:50;104175.28;;;14.93;50.72
62126;BME280;48112;53.282;6.150;2023-01-24T03:49:08;104172.84;;;14.91;50.85
62126;BME280;48112;53.282;6.150;2023-01-24T03:50:12;104173.66;;;14.92;50.93
62126;BME280;48112;53.282;6.150;2023-01-24T03:51:32;104170.94;;;14.92;50.98
62126;BME280;48112;53.282;6.150;2023-01-24T03:52:52;104179.09;;;14.92;50.86
62126;BME280;48112;53.282;6.150;2023-01-24T03:53:54;104173.66;;;14.92;50.75
62126;BME280;48112;53.282;6.150;2023-01-24T03:55:02;104173.66;;;14.92;51.12
62126;BME280;48112;53.282;6.150;2023-01-24T03:56:04;104180.72;;;14.93;51.04
62126;BME280;48112;53.282;6.150;2023-01-24T03:57:15;104184.56;;;14.92;50.91
62126;BME280;48112;53.282;6.150;2023-01-24T03:58:16;104177.47;;;14.91;50.86
62126;BME280;48112;53.282;6.150;2023-01-24T03:59:19;104176.38;;;14.92;50.73
62126;BME280;48112;53.282;6.150;2023-01-24T04:00:23;104184.56;;;14.92;51.07
62126;BME280;48112;53.282;6.150;2023-01-24T04:01:30;104173.66;;;14.92;50.86
62126;BME280;48112;53.282;6.150;2023-01-24T04:02:38;104182.91;;;14.91;50.87
62126;BME280;48112;53.282;6.150;2023-01-24T04:03:40;104184.56;;;14.92;50.93
62126;BME280;48112;53.282;6.150;2023-01-24T04:04:46;104182.91;;;14.91;50.96
62126;BME280;48112;53.282;6.150;2023-01-24T04:06:06;104177.47;;;14.91;51.10
62126;BME280;48112;53.282;6.150;2023-01-24T04:07:09;104185.63;;;14.91;50.82
62126;BME280;48112;53.282;6.150;2023-01-24T04:08:26;104181.81;;;14.92;50.91
62126;BME280;48112;53.282;6.150;2023-01-24T04:09:28;104184.56;;;14.92;51.10
62126;BME280;48112;53.282;6.150;2023-01-24T04:10:31;104184.56;;;14.92;50.95
62126;BME280;48112;53.282;6.150;2023-01-24T04:11:33;104177.47;;;14.91;51.02
62126;BME280;48112;53.282;6.150;2023-01-24T04:12:42;104177.47;;;14.91;50.94
62126;BME280;48112;53.282;6.150;2023-01-24T04:13:45;104176.66;;;14.90;50.92
62126;BME280;48112;53.282;6.150;2023-01-24T04:14:47;104177.47;;;14.91;51.00
62126;BME280;48112;53.282;6.150;2023-01-24T04:15:51;104177.47;;;14.91;50.91
62126;BME280;48112;53.282;6.150;2023-01-24T04:17:18;104181.31;;;14.90;51.19
62126;BME280;48112;53.282;6.150;2023-01-24T04:18:25;104179.09;;;14.92;50.88
62126;BME280;48112;53.282;6.150;2023-01-24T04:19:27;104178.56;;;14.90;51.14
62126;BME280;48112;53.282;6.150;2023-01-24T04:20:33;104185.63;;;14.91;50.79
62126;BME280;48112;53.282;6.150;2023-01-24T04:21:37;104180.47;;;14.89;51.10
62126;BME280;48112;53.282;6.150;2023-01-24T04:22:38;104185.63;;;14.91;50.88
62126;BME280;48112;53.282;6.150;2023-01-24T04:23:41;104182.09;;;14.90;50.96
62126;BME280;48112;53.282;6.150;2023-01-24T04:24:44;104175.84;;;14.90;50.87
62126;BME280;48112;53.282;6.150;2023-01-24T04:25:50;104188.34;;;14.91;51.05
62126;BME280;48112;53.282;6.150;2023-01-24T04:26:56;104181.31;;;14.90;50.70
62126;BME280;48112;53.282;6.150;2023-01-24T04:28:04;104180.47;;;14.89;51.16
62126;BME280;48112;53.282;6.150;2023-01-24T04:29:07;104182.09;;;14.90;51.09
62126;BME280;48112;53.282;6.150;2023-01-24T04:30:10;104181.31;;;14.90;51.10
62126;BME280;48112;53.282;6.150;2023-01-24T04:31:15;104181.31;;;14.90;50.95
62126;BME280;48112;53.282;6.150;2023-01-24T04:32:37;104182.91;;;14.91;51.21
62126;BME280;48112;53.282;6.150;2023-01-24T04:33:45;104191.34;;;14.89;51.02
62126;BME280;48112;53.282;6.150;2023-01-24T04:34:48;104186.75;;;14.90;50.75
62126;BME280;48112;53.282;6.150;2023-01-24T04:35:58;104185.09;;;14.89;51.05
62126;BME280;48112;53.282;6.150;2023-01-24T04:37:00;104194.91;;;14.90;51.02
62126;BME280;48112;53.282;6.150;2023-01-24T04:38:03;104187.81;;;14.89;50.77
62126;BME280;48112;53.282;6.150;2023-01-24T04:39:15;104185.09;;;14.89;51.33
62126;BME280;48112;53.282;6.150;2023-01-24T04:40:28;104185.91;;;14.89;51.12
62126;BME280;48112;53.282;6.150;2023-01-24T04:41:30;104187.81;;;14.89;50.89
62126;BME280;48112;53.282;6.150;2023-01-24T04:42:33;104185.09;;;14.89;51.02
62126;BME280;48112;53.282;6.150;2023-01-24T04:43:35;104191.34;;;14.89;51.00
62126;BME280;48112;53.282;6.150;2023-01-24T04:44:38;104178.88;;;14.88;50.85
62126;BME280;48112;53.282;6.150;2023-01-24T04:45:43;104185.09;;;14.89;50.93
62126;BME280;48112;53.282;6.150;2023-01-24T04:46:50;104185.09;;;14.89;51.11
62126;BME280;48112;53.282;6.150;2023-01-24T04:47:52;104185.09;;;14.89;50.99
62126;BME280;48112;53.282;6.150;2023-01-24T04:48:55;104180.78;;;14.88;51.05
62126;BME280;48112;53.282;6.150;2023-01-24T04:50:16;104185.09;;;14.89;50.88
62126;BME280;48112;53.282;6.150;2023-01-24T04:51:19;104176.16;;;14.88;50.85
62126;BME280;48112;53.282;6.150;2023-01-24T04:52:22;104174.22;;;14.89;50.83
62126;BME280;48112;53.282;6.150;2023-01-24T04:53:38;104178.88;;;14.88;50.85
62126;BME280;48112;53.282;6.150;2023-01-24T04:54:41;104176.16;;;14.88;50.89
62126;BME280;48112;53.282;6.150;2023-01-24T04:55:44;104179.66;;;14.89;50.83
62126;BME280;48112;53.282;6.150;2023-01-24T04:56:45;104179.66;;;14.89;50.98
62126;BME280;48112;53.282;6.150;2023-01-24T04:57:48;104175.31;;;14.88;50.94
62126;BME280;48112;53.282;6.150;2023-01-24T04:58:50;104178.03;;;14.88;50.92
62126;BME280;48112;53.282;6.150;2023-01-24T04:59:52;104172.59;;;14.88;50.98
62126;BME280;48112;53.282;6.150;2023-01-24T05:00:54;104173.44;;;14.88;51.01
62126;BME280;48112;53.282;6.150;2023-01-24T05:02:02;104172.59;;;14.88;51.01
62126;BME280;48112;53.282;6.150;2023-01-24T05:03:14;104178.03;;;14.88;50.92
62126;BME280;48112;53.282;6.150;2023-01-24T05:04:17;104173.44;;;14.88;50.92
62126;BME280;48112;53.282;6.150;2023-01-24T05:05:18;104171.00;;;14.87;51.03
62126;BME280;48112;53.282;6.150;2023-01-24T05:06:21;104176.94;;;14.89;50.96
62126;BME280;48112;53.282;6.150;2023-01-24T05:07:23;104172.59;;;14.88;50.81
62126;BME280;48112;53.282;6.150;2023-01-24T05:08:32;104174.50;;;14.87;50.75
62126;BME280;48112;53.282;6.150;2023-01-24T05:09:34;104173.44;;;14.88;50.83
62126;BME280;48112;53.282;6.150;2023-01-24T05:10:41;104172.59;;;14.88;51.01
62126;BME280;48112;53.282;6.150;2023-01-24T05:11:43;104172.59;;;14.88;50.94
62126;BME280;48112;53.282;6.150;2023-01-24T05:12:45;104167.16;;;14.88;51.03
62126;BME280;48112;53.282;6.150;2023-01-24T05:13:52;104169.88;;;14.88;50.96
62126;BME280;48112;53.282;6.150;2023-01-24T05:14:55;104173.72;;;14.87;50.88
62126;BME280;48112;53.282;6.150;2023-01-24T05:15:58;104166.34;;;14.87;50.95
62126;BME280;48112;53.282;6.150;2023-01-24T05:17:00;104173.72;;;14.87;51.01
62126;BME280;48112;53.282;6.150;2023-01-24T05:18:04;104175.31;;;14.88;50.94
62126;BME280;48112;53.282;6.150;2023-01-24T05:19:06;104172.59;;;14.88;50.86
62126;BME280;48112;53.282;6.150;2023-01-24T05:20:09;104175.31;;;14.88;51.11
62126;BME280;48112;53.282;6.150;2023-01-24T05:21:13;104165.56;;;14.87;50.78
62126;BME280;48112;53.282;6.150;2023-01-24T05:22:16;104171.78;;;14.87;51.13
62126;BME280;48112;53.282;6.150;2023-01-24T05:23:18;104169.06;;;14.87;50.91
62126;BME280;48112;53.282;6.150;2023-01-24T05:24:23;104165.56;;;14.87;51.05
62126;BME280;48112;53.282;6.150;2023-01-24T05:25:25;104163.91;;;14.86;50.93
62126;BME280;48112;53.282;6.150;2023-01-24T05:26:28;104170.19;;;14.86;50.95
62126;BME280;48112;53.282;6.150;2023-01-24T05:27:32;104171.00;;;14.87;51.13
62126;BME280;48112;53.282;6.150;2023-01-24T05:28:36;104171.00;;;14.87;50.73
62126;BME280;48112;53.282;6.150;2023-01-24T05:29:39;104174.78;;;14.86;50.86
62126;BME280;48112;53.282;6.150;2023-01-24T05:30:41;104170.19;;;14.86;50.93
62126;BME280;48112;53.282;6.150;2023-01-24T05:31:59;104176.44;;;14.87;50.80
62126;BME280;48112;53.282;6.150;2023-01-24T05:33:01;104167.47;;;14.86;51.23
62126;BME280;48112;53.282;6.150;2023-01-24T05:34:07;104168.28;;;14.87;50.75
62126;BME280;48112;53.282;6.150;2023-01-24T05:35:08;104170.19;;;14.86;50.83
62126;BME280;48112;53.282;6.150;2023-01-24T05:36:13;104161.19;;;14.86;51.18
62126;BME280;48112;53.282;6.150;2023-01-24T05:37:15;104161.19;;;14.86;51.22
62126;BME280;48112;53.282;6.150;2023-01-24T05:38:18;104160.13;;;14.87;50.90
62126;BME280;48112;53.282;6.150;2023-01-24T05:39:22;104169.34;;;14.86;50.98
62126;BME280;48112;53.282;6.150;2023-01-24T05:40:25;104158.47;;;14.86;50.98
62126;BME280;48112;53.282;6.150;2023-01-24T05:41:26;104168.56;;;14.85;50.91
62126;BME280;48112;53.282;6.150;2023-01-24T05:42:29;104169.34;;;14.86;50.87
62126;BME280;48112;53.282;6.150;2023-01-24T05:43:31;104172.06;;;14.86;51.01
62126;BME280;48112;53.282;6.150;2023-01-24T05:44:33;104170.19;;;14.86;50.86